sensor_id;sensor_type;location;lat;lon;timestamp;pressure;altitude;pressure_sealevel;temperature;humidity
22605;BME280;11469;49.024;8.246;2023-07-31T00:00:57;100400.31;;;17.71;74.55
22605;BME280;11469;49.024;8.246;2023-07-31T00:03:23;100397.47;;;17.71;74.65
22605;BME280;11469;49.024;8.246;2023-07-31T00:05:48;100395.44;;;17.75;74.56
22605;BME280;11469;49.024;8.246;2023-07-31T00:08:14;100399.50;;;17.70;74.71
22605;BME280;11469;49.024;8.246;2023-07-31T00:10:39;100401.13;;;17.68;74.81
22605;BME280;11469;49.024;8.246;2023-07-31T00:13:04;100391.00;;;17.67;74.94
22605;BME280;11469;49.024;8.246;2023-07-31T00:15:30;100392.22;;;17.66;74.94
22605;BME280;11469;49.024;8.246;2023-07-31T00:17:55;100387.75;;;17.61;75.37
22605;BME280;11469;49.024;8.246;2023-07-31T00:20:21;100392.63;;;17.61;75.29
22605;BME280;11469;49.024;8.246;2023-07-31T00:22:46;100380.06;;;17.62;75.36
22605;BME280;11469;49.024;8.246;2023-07-31T00:25:12;100380.06;;;17.58;75.52
22605;BME280;11469;49.024;8.246;2023-07-31T00:27:37;100375.22;;;17.55;75.60
22605;BME280;11469;49.024;8.246;2023-07-31T00:30:02;100382.50;;;17.56;75.79
22605;BME280;11469;49.024;8.246;2023-07-31T00:32:28;100377.66;;;17.49;75.91
22605;BME280;11469;49.024;8.246;2023-07-31T00:34:53;100384.13;;;17.50;76.65
22605;BME280;11469;49.024;8.246;2023-07-31T00:37:19;100377.31;;;17.44;77.42
22605;BME280;11469;49.024;8.246;2023-07-31T00:39:44;100371.25;;;17.35;77.57
22605;BME280;11469;49.024;8.246;2023-07-31T00:42:09;100370.88;;;17.29;78.07
22605;BME280;11469;49.024;8.246;2023-07-31T00:44:35;100360.75;;;17.24;78.48
22605;BME280;11469;49.024;8.246;2023-07-31T00:47:01;100364.78;;;17.27;78.88
22605;BME280;11469;49.024;8.246;2023-07-31T00:49:26;100357.53;;;17.19;79.17
22605;BME280;11469;49.024;8.246;2023-07-31T00:51:53;100359.56;;;17.18;79.36
22605;BME280;11469;49.024;8.246;2023-07-31T00:54:18;100364.41;;;17.18;79.92
22605;BME280;11469;49.024;8.246;2023-07-31T00:56:45;100358.34;;;17.05;80.87
22605;BME280;11469;49.024;8.246;2023-07-31T00:59:13;100352.69;;;17.05;81.29
22605;BME280;11469;49.024;8.246;2023-07-31T01:01:39;100353.50;;;17.02;82.08
22605;BME280;11469;49.024;8.246;2023-07-31T01:04:05;100348.28;;;16.94;83.42
22605;BME280;11469;49.024;8.246;2023-07-31T01:06:41;100355.56;;;16.95;83.80
22605;BME280;11469;49.024;8.246;2023-07-31T01:09:34;100356.78;;;16.94;84.11
22605;BME280;11469;49.024;8.246;2023-07-31T01:12:03;100355.16;;;16.96;84.48
22605;BME280;11469;49.024;8.246;2023-07-31T01:14:29;100350.72;;;16.91;84.72
22605;BME280;11469;49.024;8.246;2023-07-31T01:16:55;100355.16;;;16.89;85.74
22605;BME280;11469;49.024;8.246;2023-07-31T01:19:23;100348.28;;;16.86;85.97
22605;BME280;11469;49.024;8.246;2023-07-31T01:22:12;100350.31;;;16.86;86.48
22605;BME280;11469;49.024;8.246;2023-07-31T01:27:15;100354.75;;;16.80;86.71
22605;BME280;11469;49.024;8.246;2023-07-31T01:29:56;100347.09;;;16.73;87.37
22605;BME280;11469;49.024;8.246;2023-07-31T01:32:24;100355.56;;;16.80;86.70
22605;BME280;11469;49.024;8.246;2023-07-31T01:34:51;100349.50;;;16.78;87.03
22605;BME280;11469;49.024;8.246;2023-07-31T01:37:17;100346.69;;;16.78;87.15
22605;BME280;11469;49.024;8.246;2023-07-31T01:39:42;100347.47;;;16.75;87.38
22605;BME280;11469;49.024;8.246;2023-07-31T01:42:08;100340.59;;;16.73;87.50
22605;BME280;11469;49.024;8.246;2023-07-31T01:44:33;100336.97;;;16.76;87.28
22605;BME280;11469;49.024;8.246;2023-07-31T01:46:58;100334.53;;;16.71;87.40
22605;BME280;11469;49.024;8.246;2023-07-31T01:49:25;100320.00;;;16.76;86.84
22605;BME280;11469;49.024;8.246;2023-07-31T01:51:51;100322.41;;;16.77;86.89
22605;BME280;11469;49.024;8.246;2023-07-31T01:54:16;100313.13;;;16.70;86.99
22605;BME280;11469;49.024;8.246;2023-07-31T01:56:41;100314.75;;;16.71;86.99
22605;BME280;11469;49.024;8.246;2023-07-31T01:59:07;100311.50;;;16.69;86.60
22605;BME280;11469;49.024;8.246;2023-07-31T02:01:32;100307.44;;;16.63;86.87
22605;BME280;11469;49.024;8.246;2023-07-31T02:03:58;100307.44;;;16.63;86.73
22605;BME280;11469;49.024;8.246;2023-07-31T02:06:23;100303.41;;;16.71;86.09
22605;BME280;11469;49.024;8.246;2023-07-31T02:08:48;100304.63;;;16.66;85.97
22605;BME280;11469;49.024;8.246;2023-07-31T02:11:14;100303.00;;;16.69;86.31
22605;BME280;11469;49.024;8.246;2023-07-31T02:13:40;100311.09;;;16.70;86.14
22605;BME280;11469;49.024;8.246;2023-07-31T02:16:05;100297.75;;;16.74;85.65
22605;BME280;11469;49.024;8.246;2023-07-31T02:18:30;100303.41;;;16.67;85.91
22605;BME280;11469;49.024;8.246;2023-07-31T02:20:56;100295.75;;;16.64;86.26
22605;BME280;11469;49.024;8.246;2023-07-31T02:23:21;100288.06;;;16.65;86.20
22605;BME280;11469;49.024;8.246;2023-07-31T02:25:47;100286.00;;;16.62;86.23
22605;BME280;11469;49.024;8.246;2023-07-31T02:28:12;100295.31;;;16.58;87.04
22605;BME280;11469;49.024;8.246;2023-07-31T02:30:38;100279.16;;;16.55;86.66
22605;BME280;11469;49.024;8.246;2023-07-31T02:33:04;100291.66;;;16.58;86.76
22605;BME280;11469;49.024;8.246;2023-07-31T02:35:29;100283.19;;;16.58;86.49
22605;BME280;11469;49.024;8.246;2023-07-31T02:37:55;100284.00;;;16.58;86.06
22605;BME280;11469;49.024;8.246;2023-07-31T02:40:21;100293.28;;;16.55;86.25
22605;BME280;11469;49.024;8.246;2023-07-31T02:42:46;100286.81;;;16.55;86.51
22605;BME280;11469;49.024;8.246;2023-07-31T02:45:11;100286.81;;;16.55;86.17
22605;BME280;11469;49.024;8.246;2023-07-31T02:47:37;100295.31;;;16.55;86.37
22605;BME280;11469;49.024;8.246;2023-07-31T02:50:03;100289.28;;;16.53;86.15
22605;BME280;11469;49.024;8.246;2023-07-31T02:52:29;100284.00;;;16.55;86.17
22605;BME280;11469;49.024;8.246;2023-07-31T02:54:54;100280.75;;;16.56;86.10
22605;BME280;11469;49.024;8.246;2023-07-31T02:57:19;100288.44;;;16.56;85.78
22605;BME280;11469;49.024;8.246;2023-07-31T02:59:45;100284.41;;;16.57;85.32
22605;BME280;11469;49.024;8.246;2023-07-31T03:02:10;100297.31;;;16.54;85.68
22605;BME280;11469;49.024;8.246;2023-07-31T03:04:37;100293.28;;;16.55;85.27
22605;BME280;11469;49.024;8.246;2023-07-31T03:07:02;100290.06;;;16.60;85.10
22605;BME280;11469;49.024;8.246;2023-07-31T03:09:28;100283.19;;;16.58;84.58
22605;BME280;11469;49.024;8.246;2023-07-31T03:11:53;100279.53;;;16.61;84.04
22605;BME280;11469;49.024;8.246;2023-07-31T03:14:18;100284.03;;;16.66;83.46
22605;BME280;11469;49.024;8.246;2023-07-31T03:16:44;100277.94;;;16.64;83.03
22605;BME280;11469;49.024;8.246;2023-07-31T03:19:09;100279.16;;;16.63;83.09
22605;BME280;11469;49.024;8.246;2023-07-31T03:21:35;100281.59;;;16.71;82.70
22605;BME280;11469;49.024;8.246;2023-07-31T03:24:00;100282.81;;;16.70;82.38
22605;BME280;11469;49.024;8.246;2023-07-31T03:26:25;100284.81;;;16.70;82.50
22605;BME280;11469;49.024;8.246;2023-07-31T03:28:51;100284.03;;;16.69;82.54
22605;BME280;11469;49.024;8.246;2023-07-31T03:31:16;100290.09;;;16.64;82.70
22605;BME280;11469;49.024;8.246;2023-07-31T03:33:41;100287.25;;;16.64;82.91
22605;BME280;11469;49.024;8.246;2023-07-31T03:36:07;100286.41;;;16.64;82.95
22605;BME280;11469;49.024;8.246;2023-07-31T03:38:34;100286.44;;;16.67;83.02
22605;BME280;11469;49.024;8.246;2023-07-31T03:40:59;100277.56;;;16.69;83.18
22605;BME280;11469;49.024;8.246;2023-07-31T03:43:25;100277.56;;;16.65;83.20
22605;BME280;11469;49.024;8.246;2023-07-31T03:45:50;100269.06;;;16.65;83.29
22605;BME280;11469;49.024;8.246;2023-07-31T03:48:16;100283.22;;;16.69;83.28
22605;BME280;11469;49.024;8.246;2023-07-31T03:50:41;100284.00;;;16.62;83.77
22605;BME280;11469;49.024;8.246;2023-07-31T03:53:07;100280.34;;;16.62;83.73
22605;BME280;11469;49.024;8.246;2023-07-31T03:55:32;100285.22;;;16.61;83.97
22605;BME280;11469;49.024;8.246;2023-07-31T03:57:57;100279.56;;;16.65;83.87
22605;BME280;11469;49.024;8.246;2023-07-31T04:00:23;100279.56;;;16.65;83.83
22605;BME280;11469;49.024;8.246;2023-07-31T04:02:48;100286.81;;;16.62;84.39
22605;BME280;11469;49.024;8.246;2023-07-31T04:05:14;100284.00;;;16.62;84.52
22605;BME280;11469;49.024;8.246;2023-07-31T04:07:39;100285.63;;;16.70;83.94
22605;BME280;11469;49.024;8.246;2023-07-31T04:10:05;100281.59;;;16.71;83.90
22605;BME280;11469;49.024;8.246;2023-07-31T04:12:30;100285.63;;;16.67;84.18
22605;BME280;11469;49.024;8.246;2023-07-31T04:14:55;100279.97;;;16.67;84.82
22605;BME280;11469;49.024;8.246;2023-07-31T04:17:21;100276.34;;;16.70;84.26
22605;BME280;11469;49.024;8.246;2023-07-31T04:19:46;100279.97;;;16.67;84.68
22605;BME280;11469;49.024;8.246;2023-07-31T04:22:12;100273.91;;;16.65;84.88
22605;BME280;11469;49.024;8.246;2023-07-31T04:24:37;100285.63;;;16.70;84.82
22605;BME280;11469;49.024;8.246;2023-07-31T04:27:03;100286.03;;;16.65;85.28
22605;BME280;11469;49.024;8.246;2023-07-31T04:29:28;100275.13;;;16.74;84.59
22605;BME280;11469;49.024;8.246;2023-07-31T04:31:53;100271.88;;;16.79;84.23
22605;BME280;11469;49.024;8.246;2023-07-31T04:34:19;100273.91;;;16.79;84.61
22605;BME280;11469;49.024;8.246;2023-07-31T04:36:44;100262.59;;;16.72;85.14
22605;BME280;11469;49.024;8.246;2023-07-31T04:39:10;100269.06;;;16.69;85.57
22605;BME280;11469;49.024;8.246;2023-07-31T04:41:35;100269.47;;;16.74;85.07
22605;BME280;11469;49.024;8.246;2023-07-31T04:44:01;100266.63;;;16.74;85.31
22605;BME280;11469;49.024;8.246;2023-07-31T04:46:26;100270.28;;;16.71;85.50
22605;BME280;11469;49.024;8.246;2023-07-31T04:48:51;100271.47;;;16.77;85.26
22605;BME280;11469;49.024;8.246;2023-07-31T04:51:17;100267.84;;;16.80;84.99
22605;BME280;11469;49.024;8.246;2023-07-31T04:53:42;100267.44;;;16.78;85.38
22605;BME280;11469;49.024;8.246;2023-07-31T04:56:07;100263.38;;;16.86;84.83
22605;BME280;11469;49.024;8.246;2023-07-31T04:58:33;100262.97;;;16.84;85.30
22605;BME280;11469;49.024;8.246;2023-07-31T05:00:58;100274.31;;;16.81;86.28
22605;BME280;11469;49.024;8.246;2023-07-31T05:03:24;100265.41;;;16.82;85.87
22605;BME280;11469;49.024;8.246;2023-07-31T05:05:50;100262.97;;;16.81;85.71
22605;BME280;11469;49.024;8.246;2023-07-31T05:08:15;100264.59;;;16.82;85.60
22605;BME280;11469;49.024;8.246;2023-07-31T05:10:43;100266.59;;;16.92;85.08
22605;BME280;11469;49.024;8.246;2023-07-31T05:13:08;100257.28;;;16.99;85.28
22605;BME280;11469;49.024;8.246;2023-07-31T05:15:33;100256.84;;;17.04;84.48
22605;BME280;11469;49.024;8.246;2023-07-31T05:17:59;100264.91;;;17.12;84.00
22605;BME280;11469;49.024;8.246;2023-07-31T05:20:24;100250.72;;;17.19;84.27
22605;BME280;11469;49.024;8.246;2023-07-31T05:22:50;100253.94;;;17.25;83.63
22605;BME280;11469;49.024;8.246;2023-07-31T05:25:16;100257.97;;;17.28;83.24
22605;BME280;11469;49.024;8.246;2023-07-31T05:27:41;100254.31;;;17.34;83.37
22605;BME280;11469;49.024;8.246;2023-07-31T05:30:07;100258.72;;;17.42;82.77
22605;BME280;11469;49.024;8.246;2023-07-31T05:32:33;100251.41;;;17.48;82.29
22605;BME280;11469;49.024;8.246;2023-07-31T05:34:58;100257.88;;;17.49;82.82
22605;BME280;11469;49.024;8.246;2023-07-31T05:37:24;100246.13;;;17.50;82.74
22605;BME280;11469;49.024;8.246;2023-07-31T05:39:49;100254.19;;;17.59;82.33
22605;BME280;11469;49.024;8.246;2023-07-31T05:42:14;100262.25;;;17.68;81.69
22605;BME280;11469;49.024;8.246;2023-07-31T05:44:40;100257.78;;;17.74;82.18
22605;BME280;11469;49.024;8.246;2023-07-31T05:47:05;100257.78;;;17.74;81.97
22605;BME280;11469;49.024;8.246;2023-07-31T05:49:31;100253.28;;;17.80;81.06
22605;BME280;11469;49.024;8.246;2023-07-31T05:51:56;100245.97;;;17.82;81.26
22605;BME280;11469;49.024;8.246;2023-07-31T05:54:22;100251.22;;;17.87;81.10
22605;BME280;11469;49.024;8.246;2023-07-31T05:56:47;100257.66;;;17.92;80.79
22605;BME280;11469;49.024;8.246;2023-07-31T05:59:13;100251.59;;;17.93;80.97
22605;BME280;11469;49.024;8.246;2023-07-31T06:01:39;100259.19;;;18.03;80.85
22605;BME280;11469;49.024;8.246;2023-07-31T06:04:04;100247.81;;;18.07;80.07
22605;BME280;11469;49.024;8.246;2023-07-31T06:06:30;100248.53;;;18.21;80.11
22605;BME280;11469;49.024;8.246;2023-07-31T06:08:55;100245.16;;;18.37;78.92
22605;BME280;11469;49.024;8.246;2023-07-31T06:11:21;100246.22;;;18.50;78.52
22605;BME280;11469;49.024;8.246;2023-07-31T06:13:46;100249.84;;;18.54;76.98
22605;BME280;11469;49.024;8.246;2023-07-31T06:16:13;100250.59;;;18.66;76.40
22605;BME280;11469;49.024;8.246;2023-07-31T06:18:39;100247.59;;;18.80;76.65
22605;BME280;11469;49.024;8.246;2023-07-31T06:21:04;100264.00;;;18.99;75.82
22605;BME280;11469;49.024;8.246;2023-07-31T06:23:30;100262.66;;;19.11;75.44
22605;BME280;11469;49.024;8.246;2023-07-31T06:25:55;100260.19;;;19.16;74.55
22605;BME280;11469;49.024;8.246;2023-07-31T06:28:21;100256.91;;;19.18;74.37
22605;BME280;11469;49.024;8.246;2023-07-31T06:30:46;100250.38;;;19.21;74.92
22605;BME280;11469;49.024;8.246;2023-07-31T06:33:12;100254.78;;;19.26;74.06
22605;BME280;11469;49.024;8.246;2023-07-31T06:35:37;100249.50;;;19.28;72.94
22605;BME280;11469;49.024;8.246;2023-07-31T06:38:03;100253.53;;;19.30;73.47
22605;BME280;11469;49.024;8.246;2023-07-31T06:40:29;100250.41;;;19.17;74.00
22605;BME280;11469;49.024;8.246;2023-07-31T06:42:54;100249.16;;;19.22;74.42
22605;BME280;11469;49.024;8.246;2023-07-31T06:45:20;100246.44;;;19.11;73.78
22605;BME280;11469;49.024;8.246;2023-07-31T06:47:47;100248.84;;;19.13;74.38
22605;BME280;11469;49.024;8.246;2023-07-31T06:50:12;100258.25;;;19.06;74.15
22605;BME280;11469;49.024;8.246;2023-07-31T06:52:37;100251.38;;;19.04;74.16
22605;BME280;11469;49.024;8.246;2023-07-31T06:55:20;100250.28;;;18.94;73.77
22605;BME280;11469;49.024;8.246;2023-07-31T06:57:46;100249.88;;;18.92;74.71
22605;BME280;11469;49.024;8.246;2023-07-31T07:00:12;100249.47;;;18.94;74.22
22605;BME280;11469;49.024;8.246;2023-07-31T07:02:38;100242.97;;;18.93;74.78
22605;BME280;11469;49.024;8.246;2023-07-31T07:05:04;100247.47;;;18.90;74.40
22605;BME280;11469;49.024;8.246;2023-07-31T07:07:29;100232.84;;;18.92;74.78
22605;BME280;11469;49.024;8.246;2023-07-31T07:09:55;100237.94;;;19.08;74.05
22605;BME280;11469;49.024;8.246;2023-07-31T07:12:20;100237.84;;;19.18;73.84
22605;BME280;11469;49.024;8.246;2023-07-31T07:14:45;100227.09;;;19.33;74.29
22605;BME280;11469;49.024;8.246;2023-07-31T07:17:13;100232.63;;;19.44;72.22
22605;BME280;11469;49.024;8.246;2023-07-31T07:19:40;100228.59;;;19.41;72.40
22605;BME280;11469;49.024;8.246;2023-07-31T07:22:05;100226.88;;;19.51;72.07
22605;BME280;11469;49.024;8.246;2023-07-31T07:24:31;100213.00;;;19.57;71.71
22605;BME280;11469;49.024;8.246;2023-07-31T07:26:56;100220.63;;;19.63;71.55
22605;BME280;11469;49.024;8.246;2023-07-31T07:29:22;100229.28;;;19.83;71.48
22605;BME280;11469;49.024;8.246;2023-07-31T07:31:47;100220.59;;;19.90;71.23
22605;BME280;11469;49.024;8.246;2023-07-31T07:34:13;100225.81;;;19.95;70.67
22605;BME280;11469;49.024;8.246;2023-07-31T07:36:38;100218.84;;;20.00;71.06
22605;BME280;11469;49.024;8.246;2023-07-31T07:39:03;100211.09;;;20.00;70.29
22605;BME280;11469;49.024;8.246;2023-07-31T07:41:29;100217.22;;;19.99;70.86
22605;BME280;11469;49.024;8.246;2023-07-31T07:43:54;100203.00;;;19.99;70.11
22605;BME280;11469;49.024;8.246;2023-07-31T07:46:19;100211.06;;;20.04;69.54
22605;BME280;11469;49.024;8.246;2023-07-31T07:48:45;100212.22;;;20.06;69.38
22605;BME280;11469;49.024;8.246;2023-07-31T07:51:10;100205.91;;;19.95;68.80
22605;BME280;11469;49.024;8.246;2023-07-31T07:53:35;100204.34;;;19.91;69.58
22605;BME280;11469;49.024;8.246;2023-07-31T07:56:01;100207.19;;;19.91;69.82
22605;BME280;11469;49.024;8.246;2023-07-31T07:58:26;100215.25;;;19.96;69.13
22605;BME280;11469;49.024;8.246;2023-07-31T08:00:52;100215.06;;;20.06;69.25
22605;BME280;11469;49.024;8.246;2023-07-31T08:03:17;100219.78;;;20.16;69.36
22605;BME280;11469;49.024;8.246;2023-07-31T08:05:43;100213.63;;;20.21;69.16
22605;BME280;11469;49.024;8.246;2023-07-31T08:08:14;100212.75;;;20.25;68.65
22605;BME280;11469;49.024;8.246;2023-07-31T08:10:40;100214.59;;;20.35;67.85
22605;BME280;11469;49.024;8.246;2023-07-31T08:13:05;100216.19;;;20.36;68.50
22605;BME280;11469;49.024;8.246;2023-07-31T08:15:30;100199.34;;;20.48;67.65
22605;BME280;11469;49.024;8.246;2023-07-31T08:17:56;100204.84;;;20.59;67.72
22605;BME280;11469;49.024;8.246;2023-07-31T08:20:21;100196.41;;;20.75;67.81
22605;BME280;11469;49.024;8.246;2023-07-31T08:22:47;100199.63;;;20.77;67.05
22605;BME280;11469;49.024;8.246;2023-07-31T08:25:12;100197.84;;;20.83;67.19
22605;BME280;11469;49.024;8.246;2023-07-31T08:27:37;100209.84;;;20.95;66.63
22605;BME280;11469;49.024;8.246;2023-07-31T08:30:03;100208.94;;;21.21;66.96
22605;BME280;11469;49.024;8.246;2023-07-31T08:32:28;100206.63;;;21.32;65.18
22605;BME280;11469;49.024;8.246;2023-07-31T08:34:54;100189.25;;;21.07;65.84
22605;BME280;11469;49.024;8.246;2023-07-31T08:37:19;100186.47;;;21.43;65.46
22605;BME280;11469;49.024;8.246;2023-07-31T08:39:44;100188.22;;;21.73;65.22
22605;BME280;11469;49.024;8.246;2023-07-31T08:42:10;100170.59;;;21.94;63.42
22605;BME280;11469;49.024;8.246;2023-07-31T08:44:36;100179.97;;;22.27;63.29
22605;BME280;11469;49.024;8.246;2023-07-31T08:47:02;100166.47;;;22.44;61.44
22605;BME280;11469;49.024;8.246;2023-07-31T08:49:29;100162.91;;;22.40;59.78
22605;BME280;11469;49.024;8.246;2023-07-31T08:51:55;100174.09;;;22.18;60.27
22605;BME280;11469;49.024;8.246;2023-07-31T08:54:23;100180.34;;;22.13;61.93
22605;BME280;11469;49.024;8.246;2023-07-31T08:56:49;100167.94;;;22.03;60.25
22605;BME280;11469;49.024;8.246;2023-07-31T08:59:17;100174.34;;;22.24;60.34
22605;BME280;11469;49.024;8.246;2023-07-31T09:01:48;100162.53;;;22.54;59.71
22605;BME280;11469;49.024;8.246;2023-07-31T09:04:16;100162.81;;;22.72;59.77
22605;BME280;11469;49.024;8.246;2023-07-31T09:06:44;100163.50;;;22.93;58.17
22605;BME280;11469;49.024;8.246;2023-07-31T09:09:09;100154.03;;;22.96;58.46
22605;BME280;11469;49.024;8.246;2023-07-31T09:11:35;100143.09;;;23.07;57.74
22605;BME280;11469;49.024;8.246;2023-07-31T09:14:00;100144.34;;;23.06;58.23
22605;BME280;11469;49.024;8.246;2023-07-31T09:16:33;100137.00;;;22.92;57.55
22605;BME280;11469;49.024;8.246;2023-07-31T09:18:59;100128.53;;;22.89;58.15
22605;BME280;11469;49.024;8.246;2023-07-31T09:21:27;100128.25;;;23.12;57.06
22605;BME280;11469;49.024;8.246;2023-07-31T09:23:53;100126.97;;;23.00;56.36
22605;BME280;11469;49.024;8.246;2023-07-31T09:26:34;100119.09;;;23.17;55.58
22605;BME280;11469;49.024;8.246;2023-07-31T09:29:01;100110.41;;;23.08;55.48
22605;BME280;11469;49.024;8.246;2023-07-31T09:31:38;100116.72;;;23.15;56.80
22605;BME280;11469;49.024;8.246;2023-07-31T09:34:04;100110.50;;;23.17;56.69
22605;BME280;11469;49.024;8.246;2023-07-31T09:36:30;100118.19;;;23.33;56.59
22605;BME280;11469;49.024;8.246;2023-07-31T09:39:02;100118.19;;;23.07;54.64
22605;BME280;11469;49.024;8.246;2023-07-31T09:41:30;100123.75;;;22.98;56.96
22605;BME280;11469;49.024;8.246;2023-07-31T09:43:55;100099.69;;;23.12;55.11
22605;BME280;11469;49.024;8.246;2023-07-31T09:46:21;100111.19;;;22.96;55.06
22605;BME280;11469;49.024;8.246;2023-07-31T09:48:47;100116.94;;;22.79;55.17
22605;BME280;11469;49.024;8.246;2023-07-31T09:51:12;100110.78;;;22.81;55.62
22605;BME280;11469;49.024;8.246;2023-07-31T09:53:38;100114.09;;;22.79;55.58
22605;BME280;11469;49.024;8.246;2023-07-31T09:56:03;100109.72;;;22.75;55.74
22605;BME280;11469;49.024;8.246;2023-07-31T09:58:33;100112.78;;;22.68;57.09
22605;BME280;11469;49.024;8.246;2023-07-31T10:01:00;100109.69;;;22.62;56.26
22605;BME280;11469;49.024;8.246;2023-07-31T10:03:27;100108.00;;;22.65;56.16
22605;BME280;11469;49.024;8.246;2023-07-31T10:05:55;100101.94;;;22.63;55.94
22605;BME280;11469;49.024;8.246;2023-07-31T10:08:26;100097.47;;;22.74;55.48
22605;BME280;11469;49.024;8.246;2023-07-31T10:10:54;100090.47;;;22.92;55.23
22605;BME280;11469;49.024;8.246;2023-07-31T10:13:24;100097.69;;;22.96;55.59
22605;BME280;11469;49.024;8.246;2023-07-31T10:15:50;100090.28;;;23.11;54.48
22605;BME280;11469;49.024;8.246;2023-07-31T10:18:16;100095.66;;;23.09;55.42
22605;BME280;11469;49.024;8.246;2023-07-31T10:20:43;100098.66;;;23.31;55.03
22605;BME280;11469;49.024;8.246;2023-07-31T10:23:09;100092.13;;;23.31;54.58
22605;BME280;11469;49.024;8.246;2023-07-31T10:25:36;100089.75;;;23.42;54.65
22605;BME280;11469;49.024;8.246;2023-07-31T10:28:02;100087.94;;;23.61;54.07
22605;BME280;11469;49.024;8.246;2023-07-31T10:30:32;100093.41;;;23.42;54.02
22605;BME280;11469;49.024;8.246;2023-07-31T10:32:59;100087.78;;;23.13;54.84
22605;BME280;11469;49.024;8.246;2023-07-31T10:35:24;100092.25;;;23.14;55.00
22605;BME280;11469;49.024;8.246;2023-07-31T10:37:50;100091.78;;;23.03;55.03
22605;BME280;11469;49.024;8.246;2023-07-31T10:40:26;100089.03;;;23.12;55.45
22605;BME280;11469;49.024;8.246;2023-07-31T10:42:54;100089.28;;;23.43;55.36
22605;BME280;11469;49.024;8.246;2023-07-31T10:45:35;100075.56;;;23.51;55.60
22605;BME280;11469;49.024;8.246;2023-07-31T10:48:03;100077.59;;;23.63;54.44
22605;BME280;11469;49.024;8.246;2023-07-31T10:50:30;100092.00;;;23.85;54.86
22605;BME280;11469;49.024;8.246;2023-07-31T10:52:58;100090.28;;;23.88;53.04
22605;BME280;11469;49.024;8.246;2023-07-31T10:55:31;100091.91;;;23.89;54.24
22605;BME280;11469;49.024;8.246;2023-07-31T10:58:04;100089.50;;;23.87;53.79
22605;BME280;11469;49.024;8.246;2023-07-31T11:00:30;100073.03;;;24.13;53.23
22605;BME280;11469;49.024;8.246;2023-07-31T11:03:18;100060.94;;;24.43;53.26
22605;BME280;11469;49.024;8.246;2023-07-31T11:08:30;100061.53;;;24.38;53.95
22605;BME280;11469;49.024;8.246;2023-07-31T11:13:29;100062.00;;;24.37;53.84
22605;BME280;11469;49.024;8.246;2023-07-31T11:15:55;100057.16;;;24.46;53.08
22605;BME280;11469;49.024;8.246;2023-07-31T11:18:20;100052.41;;;24.31;53.34
22605;BME280;11469;49.024;8.246;2023-07-31T11:20:46;100045.75;;;24.34;53.25
22605;BME280;11469;49.024;8.246;2023-07-31T11:23:12;100044.91;;;24.46;53.56
22605;BME280;11469;49.024;8.246;2023-07-31T11:25:38;100047.16;;;24.51;54.33
22605;BME280;11469;49.024;8.246;2023-07-31T11:28:15;100050.03;;;24.51;54.04
22605;BME280;11469;49.024;8.246;2023-07-31T11:30:42;100051.03;;;24.57;54.37
22605;BME280;11469;49.024;8.246;2023-07-31T11:33:10;100056.63;;;24.39;52.48
22605;BME280;11469;49.024;8.246;2023-07-31T11:35:41;100043.44;;;24.41;53.09
22605;BME280;11469;49.024;8.246;2023-07-31T11:38:07;100040.16;;;24.30;53.15
22605;BME280;11469;49.024;8.246;2023-07-31T11:40:44;100045.97;;;24.39;53.25
22605;BME280;11469;49.024;8.246;2023-07-31T11:43:10;100030.09;;;24.26;53.41
22605;BME280;11469;49.024;8.246;2023-07-31T11:45:41;100030.91;;;24.26;53.36
22605;BME280;11469;49.024;8.246;2023-07-31T11:48:07;100030.91;;;24.48;53.39
22605;BME280;11469;49.024;8.246;2023-07-31T11:50:33;100025.22;;;24.79;52.87
22605;BME280;11469;49.024;8.246;2023-07-31T11:53:03;100021.75;;;24.84;53.03
22605;BME280;11469;49.024;8.246;2023-07-31T11:55:33;100020.44;;;24.76;52.92
22605;BME280;11469;49.024;8.246;2023-07-31T11:57:59;100020.53;;;24.94;52.66
22605;BME280;11469;49.024;8.246;2023-07-31T12:00:25;100018.63;;;25.22;51.36
22605;BME280;11469;49.024;8.246;2023-07-31T12:02:51;100016.16;;;25.42;51.01
22605;BME280;11469;49.024;8.246;2023-07-31T12:05:18;100006.66;;;25.24;50.22
22605;BME280;11469;49.024;8.246;2023-07-31T12:10:30;99999.34;;;25.23;52.07
22605;BME280;11469;49.024;8.246;2023-07-31T12:13:00;100002.69;;;25.21;51.49
22605;BME280;11469;49.024;8.246;2023-07-31T12:15:40;99981.25;;;25.53;51.16
22605;BME280;11469;49.024;8.246;2023-07-31T12:18:14;99984.34;;;25.68;50.16
22605;BME280;11469;49.024;8.246;2023-07-31T12:20:44;99986.19;;;25.53;50.71
22605;BME280;11469;49.024;8.246;2023-07-31T12:23:18;99987.66;;;25.48;50.44
22605;BME280;11469;49.024;8.246;2023-07-31T12:25:44;99998.09;;;25.33;51.03
22605;BME280;11469;49.024;8.246;2023-07-31T12:28:10;99977.31;;;25.10;50.73
22605;BME280;11469;49.024;8.246;2023-07-31T12:30:40;99985.75;;;24.83;51.08
22605;BME280;11469;49.024;8.246;2023-07-31T12:33:15;99986.75;;;24.89;51.05
22605;BME280;11469;49.024;8.246;2023-07-31T12:35:42;99985.72;;;25.05;51.61
22605;BME280;11469;49.024;8.246;2023-07-31T12:38:08;99984.88;;;24.95;52.14
22605;BME280;11469;49.024;8.246;2023-07-31T12:40:37;99994.63;;;24.98;52.87
22605;BME280;11469;49.024;8.246;2023-07-31T12:43:03;99987.63;;;24.99;52.13
22605;BME280;11469;49.024;8.246;2023-07-31T12:45:31;99978.22;;;24.98;51.82
22605;BME280;11469;49.024;8.246;2023-07-31T12:47:58;99976.19;;;25.08;52.19
22605;BME280;11469;49.024;8.246;2023-07-31T12:50:24;99972.16;;;24.96;51.79
22605;BME280;11469;49.024;8.246;2023-07-31T12:52:49;99956.91;;;25.08;51.83
22605;BME280;11469;49.024;8.246;2023-07-31T12:55:15;99955.22;;;25.20;51.92
22605;BME280;11469;49.024;8.246;2023-07-31T12:57:40;99952.53;;;25.26;52.79